Douglas, North Dakota
Current Conditions -  °F | °C
As of 1:54 AM on Thursday 18 Dec 2014 (Local Time) from KMOT Reporting Station
Overcast Overcast  
Wind Chill: -1°   Ceiling: 9000
Heat Index: 10°   Visibility: 10mi
Dew Point:   Wind: 7mph
Humidity: 84%   Direction: 130°SE
Pressure: 30.11"   Gusts: NA
Location:  47.86°N, 101.5°W
Report Text: KMOT 180754Z AUTO 13006KT 10SM SCT060 OVC090 M12/M14 A3011 RMK AO2 SLP232 T11221144
Loading
Personal Weather Stations






























Interactive Weather Map New forecast layout! Learn more

10-Day Weather Forecast

Advertisements
Track Severe Weather on mobile